Time;durP1;ratioP1;P1;durP2;ratioP2;P2;SDS_P1;SDS_P2;PMS_P1;PMS_P2;Temp;Humidity;BMP_temperature;BMP_pressure;BME280_temperature;BME280_humidity;BME280_pressure;Samples;Min_cycle;Max_cycle;Signal;HPM_P1;HPM_P2
2021/10/02 00:36:33;;;;;;;9.30;4.72;;;;;;;-139.48;100.00;61774.03;4993342;28;20181;-68
2021/10/02 00:45:17;;;;;;;7.85;4.88;;;;;;;-139.48;100.00;61774.03;4993301;28;20126;-69
2021/10/02 00:48:01;;;;;;;7.32;4.60;;;;;;;-139.48;100.00;61774.03;4992665;28;20049;-69
2021/10/02 00:50:46;;;;;;;7.25;4.20;;;;;;;-139.48;100.00;61774.03;4993580;28;20524;-69
2021/10/02 00:53:30;;;;;;;8.25;4.38;;;;;;;-139.48;100.00;61774.03;4992651;28;20112;-69
2021/10/02 00:56:14;;;;;;;7.70;4.40;;;;;;;-139.48;100.00;61774.03;4996194;28;20057;-68
2021/10/02 00:58:58;;;;;;;10.07;4.72;;;;;;;-139.48;100.00;61774.03;4996859;28;20052;-69
2021/10/02 01:01:55;;;;;;;7.82;4.68;;;;;;;-139.48;100.00;61774.03;4997790;28;20199;-69
2021/10/02 01:04:51;;;;;;;7.75;4.97;;;;;;;-139.48;100.00;61774.03;4983042;28;20049;-69
2021/10/02 01:07:46;;;;;;;6.93;4.85;;;;;;;-139.48;100.00;61774.03;4997884;28;20122;-69
2021/10/02 01:10:55;;;;;;;10.93;5.00;;;;;;;-139.48;100.00;61774.03;4996487;28;20044;-69
2021/10/02 01:14:12;;;;;;;6.85;4.85;;;;;;;-139.48;100.00;61774.03;4997586;28;20040;-69
2021/10/02 01:17:01;;;;;;;6.22;4.38;;;;;;;-139.48;100.00;61774.03;4996250;28;20099;-68
2021/10/02 01:19:55;;;;;;;5.85;4.20;;;;;;;-139.48;100.00;61774.03;4996705;28;20085;-69
2021/10/02 01:22:58;;;;;;;5.45;4.40;;;;;;;-139.48;100.00;61774.03;4982706;28;20049;-69
2021/10/02 01:25:58;;;;;;;8.00;5.07;;;;;;;-139.48;100.00;61774.03;4996514;28;20108;-69
2021/10/02 01:28:42;;;;;;;8.23;5.30;;;;;;;-139.48;100.00;61774.03;4996279;28;20491;-69
2021/10/02 01:31:45;;;;;;;5.75;4.70;;;;;;;-139.48;100.00;61774.03;4995992;28;20418;-69
2021/10/02 01:34:40;;;;;;;7.03;4.53;;;;;;;-139.48;100.00;61774.03;4996982;28;20471;-69
2021/10/02 01:49:48;;;;;;;7.30;4.40;;;;;;;-139.48;100.00;61774.03;4995979;28;20077;-69
2021/10/02 01:52:39;;;;;;;6.22;4.80;;;;;;;-139.48;100.00;61774.03;4996068;28;20048;-69
2021/10/02 01:55:23;;;;;;;9.60;4.70;;;;;;;-139.48;100.00;61774.03;4995898;28;20129;-69
2021/10/02 01:58:09;;;;;;;8.43;4.93;;;;;;;-139.48;100.00;61774.03;4995646;28;20419;-69
2021/10/02 02:00:53;;;;;;;10.52;4.70;;;;;;;-139.48;100.00;61774.03;4982004;28;20046;-69
2021/10/02 02:03:39;;;;;;;7.95;4.75;;;;;;;-139.48;100.00;61774.03;4995723;28;20140;-69
2021/10/02 02:06:26;;;;;;;7.40;4.00;;;;;;;-139.48;100.00;61774.03;4981794;28;20097;-68
2021/10/02 02:09:17;;;;;;;7.50;4.95;;;;;;;-139.48;100.00;61774.03;4995276;28;20061;-69
2021/10/02 02:12:01;;;;;;;9.85;5.10;;;;;;;-139.48;100.00;61774.03;4982206;28;20057;-69
2021/10/02 02:14:46;;;;;;;9.30;5.18;;;;;;;-139.48;100.00;61774.03;4995571;28;20469;-69
2021/10/02 02:17:31;;;;;;;8.35;4.53;;;;;;;-139.48;100.00;61774.03;4981715;28;20057;-69
2021/10/02 02:20:21;;;;;;;6.15;4.43;;;;;;;-139.48;100.00;61774.03;4995366;28;20049;-69
2021/10/02 02:23:08;;;;;;;8.32;4.85;;;;;;;-139.48;100.00;61774.03;4995124;28;20097;-69
2021/10/02 02:25:54;;;;;;;8.00;4.25;;;;;;;-139.48;100.00;61774.03;4995012;28;20509;-69
2021/10/02 02:28:41;;;;;;;8.20;4.75;;;;;;;-139.48;100.00;61774.03;4995183;28;20402;-69
2021/10/02 02:31:25;;;;;;;6.20;4.20;;;;;;;-139.48;100.00;61774.03;4995126;28;20065;-69
2021/10/02 02:34:09;;;;;;;6.75;4.57;;;;;;;-139.48;100.00;61774.03;4981322;28;20049;-69
2021/10/02 02:36:54;;;;;;;7.20;4.72;;;;;;;-139.48;100.00;61774.03;4995198;28;20140;-69
2021/10/02 02:39:37;;;;;;;;;;;;;;;-139.48;100.00;61774.03;4995430;28;20132;-69
2021/10/02 02:42:22;;;;;;;9.63;4.88;;;;;;;-139.48;100.00;61774.03;4995708;28;19975;-69
2021/10/02 02:45:07;;;;;;;7.88;4.78;;;;;;;-139.48;100.00;61774.03;4980955;28;20126;-69
2021/10/02 02:48:03;;;;;;;11.05;4.75;;;;;;;-139.48;100.00;61774.03;4980798;28;20049;-69
2021/10/02 02:50:54;;;;;;;7.95;4.60;;;;;;;-139.48;100.00;61774.03;4995335;28;20499;-69
2021/10/02 02:53:48;;;;;;;7.75;4.50;;;;;;;-139.48;100.00;61774.03;4981062;28;20053;-69
2021/10/02 02:56:38;;;;;;;8.65;4.72;;;;;;;-139.48;100.00;61774.03;4994490;28;20096;-69
2021/10/02 02:59:25;;;;;;;6.35;4.85;;;;;;;-139.48;100.00;61774.03;4994383;28;20060;-70
2021/10/02 03:02:16;;;;;;;6.20;4.55;;;;;;;-139.48;100.00;61774.03;4994899;28;20526;-69
2021/10/02 03:05:03;;;;;;;8.02;4.85;;;;;;;-139.48;100.00;61774.03;4994588;28;20052;-67
2021/10/02 03:07:56;;;;;;;5.72;4.40;;;;;;;-139.48;100.00;61774.03;4980552;28;20041;-69
2021/10/02 03:10:45;;;;;;;5.73;4.40;;;;;;;-139.48;100.00;61774.03;4994133;28;20056;-69
2021/10/02 03:13:34;;;;;;;7.43;5.00;;;;;;;-139.48;100.00;61774.03;4994664;28;20736;-69
2021/10/02 03:16:18;;;;;;;5.65;4.28;;;;;;;-139.48;100.00;61774.03;4994043;28;20049;-69
2021/10/02 03:19:04;;;;;;;7.90;4.82;;;;;;;-139.48;100.00;61774.03;4993416;28;20096;-69
2021/10/02 03:21:50;;;;;;;6.15;5.00;;;;;;;-139.48;100.00;61774.03;4980607;28;20100;-69
2021/10/02 03:24:39;;;;;;;9.35;5.20;;;;;;;-139.48;100.00;61774.03;4980385;28;20112;-69
2021/10/02 03:27:26;;;;;;;9.40;4.82;;;;;;;-139.48;100.00;61774.03;4980387;28;20419;-69
2021/10/02 03:30:10;;;;;;;5.75;4.47;;;;;;;-139.48;100.00;61774.03;4993936;28;20057;-69
2021/10/02 03:32:54;;;;;;;8.40;4.53;;;;;;;-139.48;100.00;61774.03;4993794;28;20054;-69
2021/10/02 03:35:39;;;;;;;7.90;4.90;;;;;;;-139.48;100.00;61774.03;4993802;28;20049;-68
2021/10/02 03:38:24;;;;;;;9.18;5.03;;;;;;;-139.48;100.00;61774.03;4993668;28;20093;-69
2021/10/02 03:41:08;;;;;;;7.50;4.82;;;;;;;-139.48;100.00;61774.03;4993529;28;20415;-68
2021/10/02 03:43:52;;;;;;;9.55;5.05;;;;;;;-139.48;100.00;61774.03;4993880;28;20048;-68
2021/10/02 03:46:36;;;;;;;7.88;4.65;;;;;;;-139.48;100.00;61774.03;4993782;28;20125;-69
2021/10/02 03:49:20;;;;;;;7.25;4.53;;;;;;;-139.48;100.00;61774.03;4993640;28;20045;-69
2021/10/02 03:52:04;;;;;;;5.22;4.57;;;;;;;-139.48;100.00;61774.03;4980299;28;20065;-69
2021/10/02 03:54:48;;;;;;;8.30;4.28;;;;;;;-139.48;100.00;61774.03;4993652;28;20046;-69
2021/10/02 03:57:37;;;;;;;7.95;4.55;;;;;;;-139.48;100.00;61774.03;4994554;28;20134;-69
2021/10/02 04:00:21;;;;;;;5.50;4.47;;;;;;;-139.48;100.00;61774.03;4994388;28;20510;-68
2021/10/02 04:03:05;;;;;;;10.32;4.63;;;;;;;-139.48;100.00;61774.03;4993564;28;20049;-69
2021/10/02 04:05:49;;;;;;;13.50;5.35;;;;;;;-139.48;100.00;61774.03;4993362;28;20049;-69
2021/10/02 04:08:33;;;;;;;6.82;4.57;;;;;;;-139.48;100.00;61774.03;4993365;28;20511;-69
2021/10/02 04:11:17;;;;;;;8.45;4.53;;;;;;;-139.48;100.00;61774.03;4993904;28;20057;-69
2021/10/02 04:14:02;;;;;;;11.57;5.05;;;;;;;-139.48;100.00;61774.03;4993191;28;20514;-69
2021/10/02 04:16:47;;;;;;;9.38;4.45;;;;;;;-139.48;100.00;61774.03;4993325;28;20499;-69
2021/10/02 04:19:30;;;;;;;5.95;4.45;;;;;;;-139.48;100.00;61774.03;4979698;28;20164;-68
2021/10/02 04:22:14;;;;;;;10.95;5.22;;;;;;;-139.48;100.00;61774.03;4994388;28;20088;-68
2021/10/02 04:24:58;;;;;;;8.85;4.35;;;;;;;-139.48;100.00;61774.03;4993201;28;20069;-69
2021/10/02 04:27:42;;;;;;;6.10;4.40;;;;;;;-139.48;100.00;61774.03;4979407;28;20052;-68
2021/10/02 04:30:26;;;;;;;7.30;4.38;;;;;;;-139.48;100.00;61774.03;4992699;28;20096;-69
2021/10/02 04:33:10;;;;;;;9.82;4.30;;;;;;;-139.48;100.00;61774.03;4993818;28;20470;-68
2021/10/02 04:35:55;;;;;;;7.40;3.90;;;;;;;-139.48;100.00;61774.03;4993036;28;20431;-69
2021/10/02 04:38:40;;;;;;;6.38;4.68;;;;;;;-139.48;100.00;61774.03;4993773;28;20053;-69
2021/10/02 04:41:23;;;;;;;7.90;4.10;;;;;;;-139.48;100.00;61774.03;4978891;28;20061;-69
2021/10/02 04:44:08;;;;;;;6.35;4.13;;;;;;;-139.48;100.00;61774.03;4979505;28;20163;-68
2021/10/02 04:46:52;;;;;;;6.63;4.50;;;;;;;-139.48;100.00;61774.03;4979537;28;20105;-69
2021/10/02 04:49:36;;;;;;;5.72;4.30;;;;;;;-139.48;100.00;61774.03;4992779;28;20108;-69
2021/10/02 04:52:20;;;;;;;7.35;4.28;;;;;;;-139.48;100.00;61774.03;4992904;28;20503;-68
2021/10/02 04:55:07;;;;;;;6.28;4.32;;;;;;;-139.48;100.00;61774.03;4992945;28;20054;-68
2021/10/02 04:57:51;;;;;;;8.50;4.65;;;;;;;-139.48;100.00;61774.03;4992541;28;20041;-69
2021/10/02 05:00:37;;;;;;;6.63;4.30;;;;;;;-139.48;100.00;61774.03;4978740;28;20105;-69
2021/10/02 05:03:21;;;;;;;7.78;4.15;;;;;;;-139.48;100.00;61774.03;4992845;28;20084;-68
2021/10/02 05:06:06;;;;;;;6.03;4.13;;;;;;;-139.48;100.00;61774.03;4992532;28;20097;-69
2021/10/02 05:08:50;;;;;;;6.57;4.10;;;;;;;-139.48;100.00;61774.03;4978754;28;20053;-68
2021/10/02 05:11:34;;;;;;;6.50;4.07;;;;;;;-139.48;100.00;61774.03;4979151;28;20065;-68
2021/10/02 05:14:18;;;;;;;6.63;4.15;;;;;;;-139.48;100.00;61774.03;4992787;28;20053;-68
2021/10/02 05:17:04;;;;;;;10.23;4.20;;;;;;;-139.48;100.00;61774.03;4978983;28;20049;-68
2021/10/02 05:19:50;;;;;;;5.32;3.90;;;;;;;-139.48;100.00;61774.03;4992684;28;20049;-68
2021/10/02 05:22:34;;;;;;;5.95;3.90;;;;;;;-139.48;100.00;61774.03;4992656;28;20057;-69
2021/10/02 05:25:18;;;;;;;5.55;3.90;;;;;;;-139.48;100.00;61774.03;4978915;28;20052;-68
2021/10/02 05:28:02;;;;;;;4.78;3.90;;;;;;;-139.48;100.00;61774.03;4990894;23;20170;-69
2021/10/02 05:30:46;;;;;;;4.53;3.63;;;;;;;-139.48;100.00;61774.03;4973185;28;20061;-69
2021/10/02 05:33:30;;;;;;;5.45;4.15;;;;;;;-139.48;100.00;61774.03;4973934;28;20050;-69
2021/10/02 05:36:15;;;;;;;4.60;3.75;;;;;;;-139.48;100.00;61774.03;4959418;28;20058;-68
2021/10/02 05:38:59;;;;;;;5.82;4.15;;;;;;;-139.48;100.00;61774.03;4973047;28;20464;-69
2021/10/02 05:41:52;;;;;;;5.88;4.32;;;;;;;-139.48;100.00;61774.03;4975566;28;20130;-69
2021/10/02 05:44:36;;;;;;;5.90;3.78;;;;;;;-139.48;100.00;61774.03;4976371;28;20090;-69
2021/10/02 05:47:20;;;;;;;6.28;3.95;;;;;;;-139.48;100.00;61774.03;4977488;28;20054;-68
2021/10/02 05:50:04;;;;;;;4.90;3.78;;;;;;;-139.48;100.00;61774.03;4977279;28;20049;-69
2021/10/02 05:52:48;;;;;;;4.97;3.72;;;;;;;-139.48;100.00;61774.03;4976488;28;20050;-68
2021/10/02 05:55:33;;;;;;;5.90;3.90;;;;;;;-139.48;100.00;61774.03;4962782;28;20197;-69
2021/10/02 05:58:17;;;;;;;6.57;4.00;;;;;;;-139.48;100.00;61774.03;4962646;28;20109;-69
2021/10/02 06:01:01;;;;;;;7.82;4.18;;;;;;;-139.48;100.00;61774.03;4977295;28;20129;-69
2021/10/02 06:03:48;;;;;;;6.25;4.20;;;;;;;-139.48;100.00;61774.03;4977003;28;20053;-68
2021/10/02 06:06:32;;;;;;;5.97;4.35;;;;;;;-139.48;100.00;61774.03;4976496;28;20473;-68
2021/10/02 06:09:16;;;;;;;6.68;4.25;;;;;;;-139.48;100.00;61774.03;4976141;28;20050;-68
2021/10/02 06:12:02;;;;;;;10.75;4.20;;;;;;;-139.48;100.00;61774.03;4962401;28;20419;-69
2021/10/02 06:14:47;;;;;;;5.45;3.80;;;;;;;-139.48;100.00;61774.03;4976035;28;20061;-69
2021/10/02 06:17:31;;;;;;;7.03;4.20;;;;;;;-139.48;100.00;61774.03;4976020;28;20466;-69
2021/10/02 06:20:15;;;;;;;5.97;4.18;;;;;;;-139.48;100.00;61774.03;4962479;28;20097;-68
2021/10/02 06:23:03;;;;;;;5.05;3.95;;;;;;;-139.48;100.00;61774.03;4975796;28;20053;-69
2021/10/02 06:25:47;;;;;;;5.15;3.83;;;;;;;-139.48;100.00;61774.03;4976630;28;20428;-68
2021/10/02 06:28:30;;;;;;;9.77;5.22;;;;;;;-139.48;100.00;61774.03;4976383;28;20098;-68
2021/10/02 06:31:14;;;;;;;7.43;4.43;;;;;;;-139.48;100.00;61774.03;4975779;28;20057;-66
2021/10/02 06:33:58;;;;;;;7.60;4.57;;;;;;;-139.48;100.00;61774.03;4962379;28;20109;-68
2021/10/02 06:36:43;;;;;;;7.55;4.45;;;;;;;-139.48;100.00;61774.03;4961829;28;20468;-68
2021/10/02 06:39:27;;;;;;;5.25;4.15;;;;;;;-139.48;100.00;61774.03;4962200;28;20049;-68
2021/10/02 06:42:11;;;;;;;9.10;4.18;;;;;;;-139.48;100.00;61774.03;4975892;28;20053;-68
2021/10/02 06:44:54;;;;;;;5.63;4.32;;;;;;;-139.48;100.00;61774.03;4975411;28;20102;-68
2021/10/02 06:47:38;;;;;;;4.32;3.83;;;;;;;-139.48;100.00;61774.03;4961691;28;20054;-68
2021/10/02 06:50:22;;;;;;;10.05;5.03;;;;;;;-139.48;100.00;61774.03;4975192;28;20053;-68
2021/10/02 06:53:06;;;;;;;7.25;4.75;;;;;;;-139.48;100.00;61774.03;4973944;28;20427;-68
2021/10/02 06:55:50;;;;;;;5.18;3.95;;;;;;;-139.48;100.00;61774.03;4976286;28;20118;-68
2021/10/02 06:58:34;;;;;;;6.80;4.40;;;;;;;-139.48;100.00;61774.03;4975076;28;20412;-68
2021/10/02 07:01:18;;;;;;;7.45;4.72;;;;;;;-139.48;100.00;61774.03;4975295;28;20045;-68
2021/10/02 07:04:01;;;;;;;7.43;4.53;;;;;;;-139.48;100.00;61774.03;4961652;28;20062;-68
2021/10/02 07:06:45;;;;;;;7.60;4.95;;;;;;;-139.48;100.00;61774.03;4976203;28;20054;-68
2021/10/02 07:09:30;;;;;;;9.35;5.13;;;;;;;-139.48;100.00;61774.03;4976032;28;20399;-69
2021/10/02 07:12:13;;;;;;;;;;;;;;;-139.48;100.00;61774.03;4975184;28;20069;-68
2021/10/02 07:14:57;;;;;;;6.50;4.88;;;;;;;-139.48;100.00;61774.03;4975102;28;20029;-69
2021/10/02 07:17:42;;;;;;;5.05;4.25;;;;;;;-139.48;100.00;61774.03;4974770;28;20050;-68
2021/10/02 07:20:27;;;;;;;8.25;5.10;;;;;;;-139.48;100.00;61774.03;4974699;28;20058;-69
2021/10/02 07:23:12;;;;;;;9.95;5.05;;;;;;;-139.48;100.00;61774.03;4974340;28;20057;-66
2021/10/02 07:25:56;;;;;;;10.05;4.50;;;;;;;-139.48;100.00;61774.03;4973997;28;20237;-68
2021/10/02 07:28:40;;;;;;;11.02;5.10;;;;;;;-139.48;100.00;61774.03;4974731;28;20049;-68
2021/10/02 07:31:24;;;;;;;8.30;4.85;;;;;;;-139.48;100.00;61774.03;4975719;28;20058;-68
2021/10/02 07:34:08;;;;;;;8.40;5.97;;;;;;;-139.48;100.00;61774.03;4975309;28;20392;-68
2021/10/02 07:36:52;;;;;;;10.32;5.43;;;;;;;-139.48;100.00;61774.03;4974962;28;20112;-68
2021/10/02 07:39:36;;;;;;;11.68;5.75;;;;;;;-139.48;100.00;61774.03;4973861;28;20125;-68
2021/10/02 07:42:20;;;;;;;7.60;6.15;;;;;;;-139.48;100.00;61774.03;4973790;28;20077;-68
2021/10/02 07:45:09;;;;;;;8.07;6.30;;;;;;;-139.48;100.00;61774.03;4973897;28;20054;-67
2021/10/02 07:47:55;;;;;;;10.45;6.55;;;;;;;-139.48;100.00;61774.03;4974245;28;20087;-68
2021/10/02 07:50:39;;;;;;;14.40;6.35;;;;;;;-139.48;100.00;61774.03;4960682;28;20416;-69
2021/10/02 07:53:23;;;;;;;8.25;6.40;;;;;;;-139.48;100.00;61774.03;4960330;28;20092;-68
2021/10/02 07:56:08;;;;;;;9.32;6.35;;;;;;;-139.48;100.00;61774.03;4974250;28;20101;-68
2021/10/02 07:58:54;;;;;;;9.73;6.93;;;;;;;-139.48;100.00;61774.03;4960537;28;20049;-69
2021/10/02 08:01:41;;;;;;;8.77;6.35;;;;;;;-139.48;100.00;61774.03;4975108;28;20049;-69
2021/10/02 08:04:25;;;;;;;8.57;6.47;;;;;;;-139.48;100.00;61774.03;4973506;28;20149;-68
2021/10/02 08:07:09;;;;;;;;;;;;;;;-139.48;100.00;61774.03;4960703;28;20150;-69
2021/10/02 08:09:53;;;;;;;10.50;6.50;;;;;;;-139.48;100.00;61774.03;4974052;28;19920;-69
2021/10/02 08:12:38;;;;;;;10.63;7.00;;;;;;;-139.48;100.00;61774.03;4973777;28;20134;-69
2021/10/02 08:15:22;;;;;;;10.02;6.20;;;;;;;-139.48;100.00;61774.03;4973258;28;20053;-67
2021/10/02 08:18:07;;;;;;;12.35;6.93;;;;;;;-139.48;100.00;61774.03;4973443;28;20134;-69
2021/10/02 08:20:53;;;;;;;11.00;6.68;;;;;;;-139.48;100.00;61774.03;4973645;28;20050;-68
2021/10/02 08:23:37;;;;;;;12.32;7.45;;;;;;;-139.48;100.00;61774.03;4959689;28;20589;-69
2021/10/02 08:26:27;;;;;;;7.85;6.05;;;;;;;-139.48;100.00;61774.03;4973516;28;20152;-68
2021/10/02 08:29:10;;;;;;;10.02;6.32;;;;;;;-139.48;100.00;61774.03;4973075;28;20097;-69
2021/10/02 08:31:54;;;;;;;9.73;5.95;;;;;;;-139.48;100.00;61774.03;4973546;28;20053;-69
2021/10/02 08:34:38;;;;;;;8.50;5.95;;;;;;;-139.48;100.00;61774.03;4973404;28;20078;-69
2021/10/02 08:37:22;;;;;;;10.05;6.20;;;;;;;-139.48;100.00;61774.03;4973190;28;20137;-69
2021/10/02 08:40:10;;;;;;;9.38;6.43;;;;;;;-139.48;100.00;61774.03;4959819;28;20407;-68
2021/10/02 08:42:55;;;;;;;7.68;5.43;;;;;;;-139.48;100.00;61774.03;4973737;28;20104;-69
2021/10/02 08:45:39;;;;;;;9.45;5.35;;;;;;;-139.48;100.00;61774.03;4973232;28;20049;-69
2021/10/02 08:48:23;;;;;;;7.60;5.25;;;;;;;-139.48;100.00;61774.03;4973522;28;20042;-69
2021/10/02 08:51:07;;;;;;;9.85;5.78;;;;;;;-139.48;100.00;61774.03;4973381;28;20101;-69
2021/10/02 08:53:54;;;;;;;7.93;5.18;;;;;;;-139.48;100.00;61774.03;4959777;28;20049;-69
2021/10/02 08:56:38;;;;;;;8.07;4.50;;;;;;;-139.48;100.00;61774.03;4973045;28;20069;-68
2021/10/02 08:59:22;;;;;;;6.50;3.75;;;;;;;-139.48;100.00;61774.03;4959795;28;20077;-68
2021/10/02 09:02:07;;;;;;;7.03;4.30;;;;;;;-139.48;100.00;61774.03;4974106;28;20049;-69
2021/10/02 09:04:52;;;;;;;7.93;3.90;;;;;;;-139.48;100.00;61774.03;4973303;28;20058;-69
2021/10/02 09:07:37;;;;;;;6.18;4.20;;;;;;;-139.48;100.00;61774.03;4959183;28;20109;-69
2021/10/02 09:10:22;;;;;;;13.90;4.13;;;;;;;-139.48;100.00;61774.03;4973031;28;20129;-69
2021/10/02 09:13:07;;;;;;;6.60;3.65;;;;;;;-139.48;100.00;61774.03;4973266;28;20066;-67
2021/10/02 09:15:51;;;;;;;5.32;3.92;;;;;;;-139.48;100.00;61774.03;4960494;28;20543;-68
2021/10/02 09:18:35;;;;;;;5.22;3.72;;;;;;;-139.48;100.00;61774.03;4976714;28;20054;-68
2021/10/02 09:21:19;;;;;;;;;;;;;;;-139.48;100.00;61774.03;4978067;28;20069;-68
2021/10/02 09:24:03;;;;;;;7.95;3.90;;;;;;;-139.48;100.00;61774.03;4976881;28;19921;-68
2021/10/02 09:26:46;;;;;;;6.38;4.05;;;;;;;-139.48;100.00;61774.03;4962761;28;20053;-68
2021/10/02 09:29:42;;;;;;;6.68;3.90;;;;;;;-139.48;100.00;61774.03;4976577;28;20408;-68
2021/10/02 09:32:36;;;;;;;5.85;4.18;;;;;;;-139.48;100.00;61774.03;4976784;28;20579;-68
2021/10/02 09:35:23;;;;;;;5.38;3.80;;;;;;;-139.48;100.00;61774.03;4976373;28;20105;-69
2021/10/02 09:38:12;;;;;;;5.47;4.07;;;;;;;-139.48;100.00;61774.03;4977425;28;20519;-68
2021/10/02 09:40:58;;;;;;;6.05;4.35;;;;;;;-139.48;100.00;61774.03;4976608;28;20046;-68
2021/10/02 09:43:47;;;;;;;5.13;3.95;;;;;;;-139.48;100.00;61774.03;4976099;28;20419;-68
2021/10/02 09:46:33;;;;;;;6.97;3.70;;;;;;;-139.48;100.00;61774.03;4962758;28;20050;-68
2021/10/02 09:49:18;;;;;;;8.60;3.67;;;;;;;-139.48;100.00;61774.03;4962385;28;20417;-68
2021/10/02 09:52:02;;;;;;;8.65;4.20;;;;;;;-139.48;100.00;61774.03;4976458;28;20049;-68
2021/10/02 09:54:49;;;;;;;4.78;3.03;;;;;;;-139.48;100.00;61774.03;4976405;28;20527;-68
2021/10/02 09:57:40;;;;;;;5.20;3.22;;;;;;;-139.48;100.00;61774.03;4977008;28;20085;-69
2021/10/02 10:00:30;;;;;;;5.15;3.20;;;;;;;-139.48;100.00;61774.03;4976004;28;20053;-68
2021/10/02 10:03:15;;;;;;;4.82;2.70;;;;;;;-139.48;100.00;61774.03;4976248;28;20049;-68
2021/10/02 10:06:15;;;;;;;4.25;2.97;;;;;;;-139.48;100.00;61774.03;4977165;28;20097;-68
2021/10/02 10:09:07;;;;;;;5.07;3.08;;;;;;;-139.48;100.00;61774.03;4975869;28;20045;-69
2021/10/02 10:11:52;;;;;;;3.88;2.75;;;;;;;-139.48;100.00;61774.03;4976106;28;20411;-68
2021/10/02 10:14:36;;;;;;;3.75;2.50;;;;;;;-139.48;100.00;61774.03;4976803;28;20475;-68
2021/10/02 10:17:20;;;;;;;;;;;;;;;-139.48;100.00;61774.03;4976311;28;20420;-68
2021/10/02 10:20:09;;;;;;;3.55;2.35;;;;;;;-139.48;100.00;61774.03;4976055;28;20295;-68
2021/10/02 10:22:58;;;;;;;3.65;2.50;;;;;;;-139.48;100.00;61774.03;4975842;28;20514;-68
2021/10/02 10:25:50;;;;;;;8.88;2.70;;;;;;;-139.48;100.00;61774.03;4962067;28;20096;-68
2021/10/02 10:28:40;;;;;;;5.40;2.83;;;;;;;-139.48;100.00;61774.03;4976112;28;20105;-68
2021/10/02 10:31:26;;;;;;;3.55;2.67;;;;;;;-139.48;100.00;61774.03;4962167;28;20105;-68
2021/10/02 10:34:10;;;;;;;4.63;2.53;;;;;;;-139.48;100.00;61774.03;4975724;28;20065;-67
2021/10/02 10:36:53;;;;;;;3.72;2.45;;;;;;;-139.48;100.00;61774.03;4975463;28;20141;-68
2021/10/02 10:39:38;;;;;;;5.47;2.40;;;;;;;-139.48;100.00;61774.03;4975738;28;20108;-68
2021/10/02 10:42:26;;;;;;;3.33;2.20;;;;;;;-139.48;100.00;61774.03;4975575;28;20404;-68
2021/10/02 10:45:10;;;;;;;3.80;2.40;;;;;;;-139.48;100.00;61774.03;4962251;28;20049;-68
2021/10/02 10:47:58;;;;;;;3.95;2.58;;;;;;;-139.48;100.00;61774.03;4976125;28;20100;-68
2021/10/02 10:50:44;;;;;;;3.50;2.33;;;;;;;-139.48;100.00;61774.03;4962258;28;20058;-69
2021/10/02 10:53:39;;;;;;;2.90;2.22;;;;;;;-139.48;100.00;61774.03;4975366;28;20216;-69
2021/10/02 10:56:43;;;;;;;2.67;1.92;;;;;;;-139.48;100.00;61774.03;4975039;28;20053;-69
2021/10/02 10:59:51;;;;;;;4.18;2.10;;;;;;;-139.48;100.00;61774.03;4975025;28;20044;-69
2021/10/02 11:02:48;;;;;;;4.40;1.90;;;;;;;-139.48;100.00;61774.03;4975287;28;20057;-69
2021/10/02 11:05:44;;;;;;;4.97;2.35;;;;;;;-139.48;100.00;61774.03;4975951;28;20053;-69
2021/10/02 11:09:02;;;;;;;2.22;2.03;;;;;;;-139.48;100.00;61774.03;4974757;28;20515;-69
2021/10/02 11:11:46;;;;;;;4.97;1.92;;;;;;;-139.48;100.00;61774.03;4975370;28;20056;-70
2021/10/02 11:14:54;;;;;;;6.50;2.30;;;;;;;-139.48;100.00;61774.03;4975678;28;20077;-70
2021/10/02 11:17:42;;;;;;;2.35;2.10;;;;;;;-139.48;100.00;61774.03;4974612;28;20134;-69
2021/10/02 11:20:26;;;;;;;3.63;2.40;;;;;;;-139.48;100.00;61774.03;4974910;28;20050;-69
2021/10/02 11:23:38;;;;;;;3.15;2.10;;;;;;;-139.48;100.00;61774.03;4975797;28;20050;-68
2021/10/02 11:26:51;;;;;;;3.58;1.95;;;;;;;-139.48;100.00;61774.03;4975701;28;20045;-69
2021/10/02 11:29:37;;;;;;;4.32;2.10;;;;;;;-139.48;100.00;61774.03;5008114;23;20092;-69
2021/10/02 11:32:34;;;;;;;2.88;2.42;;;;;;;-139.48;100.00;61774.03;5007892;28;20104;-69
2021/10/02 11:35:34;;;;;;;5.72;2.65;;;;;;;-139.48;100.00;61774.03;4993791;28;20105;-69
2021/10/02 11:38:36;;;;;;;3.15;2.08;;;;;;;-139.48;100.00;61774.03;4992943;28;20468;-70
2021/10/02 11:41:22;;;;;;;5.15;2.22;;;;;;;-139.48;100.00;61774.03;4994892;28;20046;-69
2021/10/02 11:44:06;;;;;;;3.15;2.30;;;;;;;-139.48;100.00;61774.03;4979821;28;20053;-69
2021/10/02 11:46:55;;;;;;;3.90;2.78;;;;;;;-139.48;100.00;61774.03;4993769;28;20053;-69
2021/10/02 11:49:39;;;;;;;4.28;2.50;;;;;;;-139.48;100.00;61774.03;4993369;28;20045;-69
2021/10/02 11:52:24;;;;;;;4.65;2.80;;;;;;;-139.48;100.00;61774.03;4993558;28;20056;-70
2021/10/02 11:55:33;;;;;;;4.10;2.22;;;;;;;-139.48;100.00;61774.03;4993638;28;20127;-70
2021/10/02 11:58:17;;;;;;;2.42;2.22;;;;;;;-139.48;100.00;61774.03;4993601;28;20092;-69
2021/10/02 12:01:02;;;;;;;5.25;2.25;;;;;;;-139.48;100.00;61774.03;4993361;28;20418;-71
2021/10/02 12:03:46;;;;;;;5.60;2.30;;;;;;;-139.48;100.00;61774.03;4993472;28;20053;-70
2021/10/02 12:06:37;;;;;;;3.03;2.30;;;;;;;-139.48;100.00;61774.03;4993449;28;20064;-72
2021/10/02 12:09:21;;;;;;;3.53;2.40;;;;;;;-139.48;100.00;61774.03;4993156;28;20040;-64
2021/10/02 12:12:05;;;;;;;5.03;2.58;;;;;;;-139.48;100.00;61774.03;4994109;28;20096;-71
2021/10/02 12:14:55;;;;;;;3.55;2.55;;;;;;;-139.48;100.00;61774.03;4993377;28;20471;-70
2021/10/02 12:17:53;;;;;;;3.28;2.30;;;;;;;-139.48;100.00;61774.03;4979533;28;20141;-71
2021/10/02 12:20:37;;;;;;;3.33;2.28;;;;;;;-139.48;100.00;61774.03;4993019;28;20053;-70
2021/10/02 12:23:21;;;;;;;4.13;2.28;;;;;;;-139.48;100.00;61774.03;4993241;28;20092;-70
2021/10/02 12:26:06;;;;;;;4.30;2.28;;;;;;;-139.48;100.00;61774.03;4994191;28;20049;-71
2021/10/02 12:28:58;;;;;;;3.72;2.20;;;;;;;-139.48;100.00;61774.03;4992675;28;20050;-70
2021/10/02 12:31:51;;;;;;;4.28;2.30;;;;;;;-139.48;100.00;61774.03;4993109;28;20121;-70
2021/10/02 12:34:45;;;;;;;3.60;2.25;;;;;;;-139.48;100.00;61774.03;4992731;28;20049;-70
2021/10/02 12:37:31;;;;;;;5.97;2.78;;;;;;;-139.48;100.00;61774.03;4992749;28;20463;-70
2021/10/02 12:40:16;;;;;;;3.15;2.28;;;;;;;-139.48;100.00;61774.03;4992666;28;20053;-70
2021/10/02 12:43:00;;;;;;;3.60;2.25;;;;;;;-139.48;100.00;61774.03;4992972;28;20100;-71
2021/10/02 12:45:44;;;;;;;4.57;2.88;;;;;;;-139.48;100.00;61774.03;4993825;28;20045;-70
2021/10/02 12:48:28;;;;;;;;;;;;;;;-139.48;100.00;61774.03;4993021;28;20065;-71
2021/10/02 12:51:12;;;;;;;2.80;2.30;;;;;;;-139.48;100.00;61774.03;4982385;28;19987;-70
2021/10/02 12:53:56;;;;;;;4.15;2.42;;;;;;;-139.48;100.00;61774.03;4983110;28;20578;-71
2021/10/02 12:56:55;;;;;;;4.22;2.30;;;;;;;-139.48;100.00;61774.03;4983103;28;20053;-70
2021/10/02 12:59:41;;;;;;;4.18;2.30;;;;;;;-139.48;100.00;61774.03;4997425;28;20086;-71
2021/10/02 13:02:27;;;;;;;2.15;1.95;;;;;;;-139.48;100.00;61774.03;4983097;28;20049;-72
2021/10/02 13:05:12;;;;;;;2.40;2.20;;;;;;;-139.48;100.00;61774.03;4996425;28;20053;-71
2021/10/02 13:08:02;;;;;;;5.45;2.70;;;;;;;-139.48;100.00;61774.03;4997321;28;20045;-67
2021/10/02 13:10:47;;;;;;;4.43;2.03;;;;;;;-139.48;100.00;61774.03;4982795;28;20112;-67
2021/10/02 13:13:31;;;;;;;2.50;2.17;;;;;;;-139.48;100.00;61774.03;4997911;28;20090;-68
2021/10/02 13:16:20;;;;;;;;;;;;;;;-139.48;100.00;61774.03;4983181;28;20069;-67
2021/10/02 13:19:06;;;;;;;4.35;2.10;;;;;;;-139.48;100.00;61774.03;4982391;28;19921;-67
2021/10/02 13:22:11;;;;;;;2.65;2.30;;;;;;;-139.48;100.00;61774.03;4997140;28;20514;-69
2021/10/02 13:25:11;;;;;;;3.45;2.47;;;;;;;-139.48;100.00;61774.03;4996135;28;20054;-68
2021/10/02 13:27:57;;;;;;;3.53;2.53;;;;;;;-139.48;100.00;61774.03;4996179;28;20049;-67
2021/10/02 13:30:42;;;;;;;3.33;2.45;;;;;;;-139.48;100.00;61774.03;4997324;28;20479;-68
2021/10/02 13:33:26;;;;;;;;;;;;;;;-139.48;100.00;61774.03;4996682;28;20104;-68